createdAt,value
2019-01-15T00:00:23.402Z,74.21
2019-01-15T00:01:23.417Z,74.74
2019-01-15T00:02:23.365Z,74.21
2019-01-15T00:03:23.362Z,74.52
2019-01-15T00:04:23.348Z,75.26
2019-01-15T00:05:23.339Z,75.36
2019-01-15T00:06:23.330Z,75.78
2019-01-15T00:07:23.368Z,75.67
2019-01-15T00:08:23.303Z,75.78
2019-01-15T00:09:23.295Z,75.88
2019-01-15T00:10:23.287Z,76.09
2019-01-15T00:11:23.285Z,76.20
2019-01-15T00:12:23.322Z,76.30
2019-01-15T00:13:23.265Z,76.09
2019-01-15T00:14:23.255Z,76.06
2019-01-15T00:15:23.230Z,76.26
2019-01-15T00:16:23.219Z,76.06
2019-01-15T00:17:23.252Z,75.64
2019-01-15T00:18:23.332Z,76.26
2019-01-15T00:19:23.180Z,76.06
2019-01-15T00:20:23.187Z,76.06
2019-01-15T00:21:23.175Z,76.26
2019-01-15T00:22:23.160Z,76.26
2019-01-15T00:23:23.256Z,76.26
2019-01-15T00:24:23.135Z,75.53
2019-01-15T00:25:23.117Z,75.85
2019-01-15T00:26:23.111Z,75.74
2019-01-15T00:27:23.113Z,75.85
2019-01-15T00:28:23.087Z,75.85
2019-01-15T00:29:23.132Z,75.64
2019-01-15T00:30:23.101Z,75.95
2019-01-15T00:31:23.097Z,75.53
2019-01-15T00:32:23.054Z,76.16
2019-01-15T00:33:23.039Z,75.71
2019-01-15T00:34:23.057Z,75.74
2019-01-15T00:35:23.058Z,75.40
2019-01-15T00:36:23.017Z,75.81
2019-01-15T00:37:23.010Z,75.60
2019-01-15T00:38:22.987Z,75.09
2019-01-15T00:39:22.968Z,75.09
2019-01-15T00:40:23.020Z,75.09
2019-01-15T00:41:22.968Z,74.98
2019-01-15T00:42:22.933Z,74.98
2019-01-15T00:43:22.950Z,74.98
2019-01-15T00:44:22.926Z,75.09
2019-01-15T00:45:22.937Z,75.40
2019-01-15T00:46:22.994Z,75.60
2019-01-15T00:47:22.928Z,75.50
2019-01-15T00:48:22.877Z,75.29
2019-01-15T00:49:22.858Z,75.64
2019-01-15T00:50:22.877Z,75.53
2019-01-15T00:51:22.836Z,75.85
2019-01-15T00:52:22.887Z,76.06
2019-01-15T00:53:22.820Z,76.16
2019-01-15T00:54:22.966Z,76.16
2019-01-15T00:55:22.801Z,76.37
2019-01-15T00:56:22.793Z,75.64
2019-01-15T00:57:22.772Z,75.85
2019-01-15T00:58:23.693Z,75.95
2019-01-15T00:59:22.753Z,75.43
2019-01-15T01:00:22.780Z,75.53
2019-01-15T01:01:22.744Z,75.95
2019-01-15T01:02:22.734Z,75.43
2019-01-15T01:03:22.750Z,75.53
2019-01-15T01:04:22.713Z,74.91
2019-01-15T01:05:22.697Z,75.53
2019-01-15T01:06:22.676Z,75.64
2019-01-15T01:07:22.665Z,75.85
2019-01-15T01:08:22.659Z,75.53
2019-01-15T01:09:22.686Z,76.06
2019-01-15T01:10:22.673Z,75.53
2019-01-15T01:11:22.628Z,75.64
2019-01-15T01:12:22.617Z,75.74
2019-01-15T01:13:22.626Z,75.64
2019-01-15T01:14:22.637Z,75.64
2019-01-15T01:15:22.586Z,76.26
2019-01-15T01:16:22.582Z,75.85
2019-01-15T01:17:22.571Z,75.43
2019-01-15T01:18:22.552Z,75.53
2019-01-15T01:19:22.546Z,75.74
2019-01-15T01:20:22.578Z,75.64
2019-01-15T01:21:22.566Z,75.43
2019-01-15T01:22:22.517Z,75.43
2019-01-15T01:23:22.523Z,75.53
2019-01-15T01:24:22.484Z,75.53
2019-01-15T01:25:22.795Z,75.85
2019-01-15T01:26:22.488Z,75.32
2019-01-15T01:27:22.500Z,75.85
2019-01-15T01:28:22.452Z,75.64
2019-01-15T01:29:22.440Z,75.74
2019-01-15T01:30:22.445Z,76.06
2019-01-15T01:31:22.418Z,75.85
2019-01-15T01:32:22.400Z,76.16
2019-01-15T01:33:22.468Z,75.85
2019-01-15T01:34:22.395Z,76.26
2019-01-15T01:35:22.378Z,75.95
2019-01-15T01:36:22.388Z,75.85
2019-01-15T01:37:22.351Z,76.26
2019-01-15T01:38:22.345Z,76.37
2019-01-15T01:39:22.374Z,75.74
2019-01-15T01:40:22.314Z,75.43
2019-01-15T01:41:22.316Z,75.64
2019-01-15T01:42:29.247Z,75.85
2019-01-15T01:43:23.321Z,75.64
2019-01-15T01:44:22.313Z,75.74
2019-01-15T01:45:22.268Z,74.91
2019-01-15T01:46:22.252Z,75.19
2019-01-15T01:47:22.244Z,74.87
2019-01-15T01:48:22.239Z,74.98
2019-01-15T01:49:22.217Z,75.09
2019-01-15T01:50:22.285Z,75.01
2019-01-15T01:51:22.200Z,74.07
2019-01-15T01:52:22.207Z,73.94
2019-01-15T01:53:22.190Z,74.46
2019-01-15T01:54:22.164Z,74.39
2019-01-15T01:55:22.163Z,75.12
2019-01-15T01:56:22.210Z,74.77
2019-01-15T01:57:22.150Z,75.12
2019-01-15T01:58:22.126Z,75.43
2019-01-15T01:59:22.114Z,75.43
2019-01-15T02:00:22.109Z,75.74
2019-01-15T02:01:22.176Z,75.43
2019-01-15T02:02:22.076Z,75.53
2019-01-15T02:03:22.070Z,75.43
2019-01-15T02:04:22.069Z,75.85
2019-01-15T02:05:22.039Z,75.64
2019-01-15T02:06:22.048Z,75.43
2019-01-15T02:07:22.059Z,75.85
2019-01-15T02:08:22.008Z,75.85
2019-01-15T02:09:22.016Z,75.74
2019-01-15T02:10:22.005Z,75.43
2019-01-15T02:11:21.981Z,75.74
2019-01-15T02:12:22.034Z,75.64
2019-01-15T02:13:21.953Z,75.64
2019-01-15T02:14:21.950Z,75.53
2019-01-15T02:15:21.953Z,75.64
2019-01-15T02:16:21.930Z,75.64
2019-01-15T02:17:21.921Z,75.74
2019-01-15T02:18:21.948Z,75.74
2019-01-15T02:19:21.886Z,75.53
2019-01-15T02:20:21.881Z,75.95
2019-01-15T02:21:21.882Z,75.53
2019-01-15T02:22:21.881Z,76.06
2019-01-15T02:23:21.863Z,75.64
2019-01-15T02:24:21.876Z,75.53
2019-01-15T02:25:21.827Z,75.64
2019-01-15T02:26:21.882Z,75.60
2019-01-15T02:27:21.803Z,75.40
2019-01-15T02:28:21.844Z,75.29
2019-01-15T02:29:21.878Z,75.09
2019-01-15T02:30:21.782Z,75.09
2019-01-15T02:31:21.779Z,74.98
2019-01-15T02:32:21.793Z,74.84
2019-01-15T02:33:21.782Z,74.25
2019-01-15T02:34:21.749Z,74.21
2019-01-15T02:35:21.742Z,74.11
2019-01-15T02:36:21.715Z,74.11
2019-01-15T02:37:21.793Z,74.21
2019-01-15T02:38:21.700Z,74.43
2019-01-15T02:39:21.722Z,74.29
2019-01-15T02:40:21.673Z,74.43
2019-01-15T02:41:21.666Z,73.97
2019-01-15T02:42:21.652Z,73.90
2019-01-15T02:43:21.634Z,74.18
2019-01-15T02:44:24.176Z,73.77
2019-01-15T02:45:21.678Z,73.56
2019-01-15T02:46:21.607Z,73.46
2019-01-15T02:47:21.678Z,73.66
2019-01-15T02:48:21.597Z,73.46
2019-01-15T02:49:21.571Z,73.25
2019-01-15T02:50:21.604Z,73.14
2019-01-15T02:51:21.549Z,73.25
2019-01-15T02:52:21.537Z,73.14
2019-01-15T02:53:21.577Z,73.03
2019-01-15T02:54:21.536Z,73.25
2019-01-15T02:55:21.513Z,73.25
2019-01-15T02:56:21.526Z,73.14
2019-01-15T02:57:21.527Z,73.32
2019-01-15T02:58:21.490Z,73.25
2019-01-15T02:59:21.484Z,73.35
2019-01-15T03:00:21.449Z,73.14
2019-01-15T03:01:21.442Z,72.83
2019-01-15T03:02:21.440Z,72.93
2019-01-15T03:03:21.704Z,73.25
2019-01-15T03:04:21.416Z,73.14
2019-01-15T03:05:21.396Z,72.52
2019-01-15T03:06:21.388Z,73.25
2019-01-15T03:07:21.386Z,73.25
2019-01-15T03:08:21.393Z,73.35
2019-01-15T03:09:21.400Z,73.14
2019-01-15T03:10:21.347Z,73.14
2019-01-15T03:11:21.342Z,73.56
2019-01-15T03:12:21.457Z,73.03
2019-01-15T03:13:21.349Z,73.87
2019-01-15T03:14:21.337Z,73.97
2019-01-15T03:15:21.293Z,73.77
2019-01-15T03:16:21.283Z,74.01
2019-01-15T03:17:21.280Z,74.11
2019-01-15T03:18:21.275Z,74.21
2019-01-15T03:19:21.256Z,74.21
2019-01-15T03:20:21.274Z,74.01
2019-01-15T03:21:21.243Z,75.05
2019-01-15T03:22:21.213Z,74.98
2019-01-15T03:23:21.214Z,75.71
2019-01-15T03:24:21.204Z,75.92
2019-01-15T03:25:21.233Z,75.71
2019-01-15T03:26:21.161Z,75.81
2019-01-15T03:27:21.156Z,76.06
2019-01-15T03:28:21.147Z,76.12
2019-01-15T03:29:21.145Z,75.92
2019-01-15T03:30:21.146Z,76.33
2019-01-15T03:31:21.220Z,75.92
2019-01-15T03:32:21.116Z,76.33
2019-01-15T03:33:21.098Z,75.92
2019-01-15T03:34:21.079Z,76.47
2019-01-15T03:35:21.081Z,76.02
2019-01-15T03:36:21.078Z,76.57
2019-01-15T03:37:21.105Z,76.37
2019-01-15T03:38:21.048Z,76.78
2019-01-15T03:39:21.025Z,76.06
2019-01-15T03:40:21.019Z,76.68
2019-01-15T03:41:21.044Z,76.89
2019-01-15T03:42:20.992Z,76.78
2019-01-15T03:43:21.043Z,78.03
2019-01-15T03:44:20.999Z,77.72
2019-01-15T03:45:20.988Z,77.55
2019-01-15T03:46:20.997Z,77.55
2019-01-15T03:47:20.976Z,77.34
2019-01-15T03:48:20.928Z,78.07
2019-01-15T03:49:20.938Z,77.72
2019-01-15T03:50:20.919Z,77.76
2019-01-15T03:51:20.894Z,77.83
2019-01-15T03:52:20.925Z,77.62
2019-01-15T03:53:20.904Z,77.41
2019-01-15T03:54:20.874Z,77.62
2019-01-15T03:55:20.861Z,77.51
2019-01-15T03:56:20.893Z,77.72
2019-01-15T03:57:20.839Z,77.93
2019-01-15T03:58:20.847Z,77.89
2019-01-15T03:59:20.848Z,77.69
2019-01-15T04:00:20.857Z,76.75
2019-01-15T04:01:20.801Z,76.43
2019-01-15T04:02:20.777Z,76.54
2019-01-15T04:03:20.835Z,76.96
2019-01-15T04:04:20.766Z,77.17
2019-01-15T04:05:20.753Z,76.33
2019-01-15T04:06:20.785Z,76.51
2019-01-15T04:07:20.729Z,76.51
2019-01-15T04:08:20.709Z,76.40
2019-01-15T04:09:20.720Z,76.40
2019-01-15T04:10:20.701Z,76.51
2019-01-15T04:11:20.687Z,76.40
2019-01-15T04:12:20.721Z,76.37
2019-01-15T04:13:22.021Z,76.30
2019-01-15T04:14:20.648Z,76.61
2019-01-15T04:15:20.658Z,76.40
2019-01-15T04:16:20.631Z,76.51
2019-01-15T04:17:20.623Z,76.40
2019-01-15T04:18:20.807Z,76.51
2019-01-15T04:19:20.642Z,76.37
2019-01-15T04:20:20.591Z,76.37
2019-01-15T04:21:20.586Z,76.47
2019-01-15T04:22:20.586Z,76.57
2019-01-15T04:23:20.611Z,76.37
2019-01-15T04:24:20.538Z,76.47
2019-01-15T04:25:20.526Z,76.37
2019-01-15T04:26:20.527Z,76.20
2019-01-15T04:27:20.580Z,76.72
2019-01-15T04:28:20.542Z,76.61
2019-01-15T04:29:20.491Z,77.72
2019-01-15T04:30:20.496Z,77.34
2019-01-15T04:31:20.472Z,77.86
2019-01-15T04:32:20.461Z,78.17
2019-01-15T04:33:20.496Z,77.86
2019-01-15T04:34:20.431Z,77.96
2019-01-15T04:35:20.488Z,78.49
2019-01-15T04:36:20.416Z,78.49
2019-01-15T04:37:20.399Z,78.59
2019-01-15T04:38:20.403Z,78.59
2019-01-15T04:39:20.432Z,78.80
2019-01-15T04:40:20.382Z,78.49
2019-01-15T04:41:20.366Z,79.00
2019-01-15T04:42:20.358Z,78.80
2019-01-15T04:43:20.342Z,78.69
2019-01-15T04:44:20.327Z,78.69
2019-01-15T04:45:20.772Z,78.66
2019-01-15T04:46:20.316Z,78.45
2019-01-15T04:47:20.303Z,78.69
2019-01-15T04:48:20.288Z,78.66
2019-01-15T04:49:20.481Z,78.55
2019-01-15T04:50:20.273Z,78.76
2019-01-15T04:51:20.294Z,78.66
2019-01-15T04:52:20.247Z,79.49
2019-01-15T04:53:20.250Z,79.38
2019-01-15T04:54:20.224Z,79.59
2019-01-15T04:55:20.332Z,79.28
2019-01-15T04:56:20.198Z,79.49
2019-01-15T04:57:20.243Z,79.69
2019-01-15T04:58:20.193Z,79.76
2019-01-15T04:59:20.167Z,79.28
2019-01-15T05:00:20.167Z,79.80
2019-01-15T05:01:20.662Z,79.66
2019-01-15T05:02:20.174Z,79.17
2019-01-15T05:03:20.199Z,79.14
2019-01-15T05:04:20.121Z,79.55
2019-01-15T05:05:20.111Z,79.45
2019-01-15T05:06:20.111Z,79.14
2019-01-15T05:07:20.103Z,79.55
2019-01-15T05:08:20.071Z,79.87
2019-01-15T05:09:20.163Z,78.93
2019-01-15T05:10:20.060Z,79.03
2019-01-15T05:11:20.038Z,78.62
2019-01-15T05:12:20.039Z,78.52
2019-01-15T05:13:27.198Z,78.62
2019-01-15T05:14:21.080Z,78.52
2019-01-15T05:15:19.985Z,78.83
2019-01-15T05:16:20.013Z,78.83
2019-01-15T05:17:19.973Z,78.20
2019-01-15T05:18:19.957Z,78.00
2019-01-15T05:19:19.957Z,78.06
2019-01-15T05:20:20.010Z,77.86
2019-01-15T05:21:19.929Z,78.00
2019-01-15T05:22:19.923Z,78.41
2019-01-15T05:23:19.909Z,78.06
2019-01-15T05:24:19.890Z,77.65
2019-01-15T05:25:19.950Z,77.96
2019-01-15T05:26:19.946Z,77.65
2019-01-15T05:27:19.866Z,77.86
2019-01-15T05:28:19.853Z,77.86
2019-01-15T05:29:19.891Z,77.96
2019-01-15T05:30:19.830Z,77.75
2019-01-15T05:31:19.829Z,77.65
2019-01-15T05:32:19.806Z,77.65
2019-01-15T05:33:19.813Z,77.44
2019-01-15T05:34:19.800Z,77.65
2019-01-15T05:35:19.852Z,77.86
2019-01-15T05:36:19.826Z,77.96
2019-01-15T05:37:19.773Z,77.75
2019-01-15T05:38:19.738Z,77.96
2019-01-15T05:39:19.732Z,77.34
2019-01-15T05:40:19.730Z,77.34
2019-01-15T05:41:19.707Z,77.30
2019-01-15T05:42:19.749Z,77.34
2019-01-15T05:43:19.698Z,77.23
2019-01-15T05:44:19.719Z,77.23
2019-01-15T05:45:19.893Z,77.23
2019-01-15T05:46:19.658Z,77.23
2019-01-15T05:47:19.647Z,77.61
2019-01-15T05:48:19.731Z,77.40
2019-01-15T05:49:19.692Z,77.30
2019-01-15T05:50:19.617Z,77.40
2019-01-15T05:51:19.609Z,77.61
2019-01-15T05:52:19.599Z,77.09
2019-01-15T05:53:19.574Z,76.99
2019-01-15T05:54:19.578Z,76.68
2019-01-15T05:55:19.609Z,75.74
2019-01-15T05:56:19.552Z,76.06
2019-01-15T05:57:19.543Z,76.26
2019-01-15T05:58:19.526Z,76.06
2019-01-15T05:59:19.518Z,75.85
2019-01-15T06:00:19.514Z,76.16
2019-01-15T06:01:19.526Z,76.37
2019-01-15T06:02:19.502Z,76.37
2019-01-15T06:03:19.478Z,76.37
2019-01-15T06:04:19.461Z,76.37
2019-01-15T06:05:19.447Z,76.26
2019-01-15T06:06:19.440Z,76.16
2019-01-15T06:07:19.472Z,76.16
2019-01-15T06:08:19.431Z,76.26
2019-01-15T06:09:19.409Z,76.06
2019-01-15T06:10:19.393Z,75.71
2019-01-15T06:11:19.390Z,75.74
2019-01-15T06:12:19.383Z,75.81
2019-01-15T06:13:19.407Z,75.71
2019-01-15T06:14:19.365Z,75.74
2019-01-15T06:15:19.360Z,75.74
2019-01-15T06:16:19.342Z,76.26
2019-01-15T06:17:19.387Z,75.50
2019-01-15T06:18:19.325Z,75.40
2019-01-15T06:19:19.315Z,75.19
2019-01-15T06:21:30.640Z,75.40
2019-01-15T06:22:30.609Z,74.88
2019-01-15T06:23:30.618Z,74.98
2019-01-15T06:24:30.611Z,75.19
2019-01-15T06:25:30.563Z,75.19
2019-01-15T06:26:30.546Z,74.77
2019-01-15T06:27:30.537Z,74.67
2019-01-15T06:28:30.586Z,74.70
2019-01-15T06:29:30.532Z,73.74
2019-01-15T06:30:30.522Z,74.46
2019-01-15T06:31:30.508Z,73.84
2019-01-15T06:32:30.542Z,74.26
2019-01-15T06:33:30.523Z,74.15
2019-01-15T06:34:30.475Z,74.26
2019-01-15T06:35:30.487Z,74.15
2019-01-15T06:36:30.468Z,74.15
2019-01-15T06:37:30.443Z,74.15
2019-01-15T06:38:30.428Z,74.05
2019-01-15T06:39:30.421Z,73.53
2019-01-15T06:40:30.417Z,73.63
2019-01-15T06:41:30.429Z,73.53
2019-01-15T06:42:30.403Z,74.05
2019-01-15T06:43:30.386Z,73.84
2019-01-15T06:44:30.364Z,74.32
2019-01-15T06:45:31.323Z,73.70
2019-01-15T06:46:30.371Z,74.11
2019-01-15T06:47:30.339Z,73.53
2019-01-15T06:48:30.324Z,73.91
2019-01-15T06:49:30.323Z,73.49
2019-01-15T06:50:30.302Z,73.39
2019-01-15T06:51:30.307Z,73.39
2019-01-15T06:52:30.275Z,73.49
2019-01-15T06:53:30.271Z,73.49
2019-01-15T06:54:30.270Z,72.87
2019-01-15T06:55:30.255Z,73.18
2019-01-15T06:56:30.257Z,72.87
2019-01-15T06:57:30.258Z,73.18
2019-01-15T06:58:30.217Z,73.08
2019-01-15T06:59:30.211Z,72.87
2019-01-15T07:00:30.188Z,72.97
2019-01-15T07:01:30.179Z,73.18
2019-01-15T07:02:30.195Z,73.08
2019-01-15T07:03:30.172Z,72.97
2019-01-15T07:04:30.178Z,73.49
2019-01-15T07:05:30.153Z,73.49
2019-01-15T07:06:30.129Z,73.18
2019-01-15T07:07:30.146Z,73.08
2019-01-15T07:08:30.136Z,72.77
2019-01-15T07:09:30.095Z,73.18
2019-01-15T07:10:30.093Z,72.97
2019-01-15T07:11:30.071Z,73.28
2019-01-15T07:12:30.075Z,73.08
2019-01-15T07:13:30.058Z,72.87
2019-01-15T07:14:30.090Z,73.08
2019-01-15T07:15:30.034Z,73.18
2019-01-15T07:16:30.018Z,72.66
2019-01-15T07:17:30.009Z,72.87
2019-01-15T07:18:30.012Z,73.08
2019-01-15T07:19:29.990Z,73.28
2019-01-15T07:20:30.008Z,72.66
2019-01-15T07:21:30.116Z,73.08
2019-01-15T07:22:29.999Z,72.66
2019-01-15T07:23:29.951Z,72.77
2019-01-15T07:24:29.946Z,72.56
2019-01-15T07:25:29.958Z,72.80
2019-01-15T07:26:29.947Z,72.56
2019-01-15T07:27:29.942Z,72.59
2019-01-15T07:28:29.915Z,72.49
2019-01-15T07:29:29.883Z,72.80
2019-01-15T07:30:29.881Z,72.80
2019-01-15T07:31:29.886Z,72.77
2019-01-15T07:32:29.867Z,72.87
2019-01-15T07:33:29.863Z,72.77
2019-01-15T07:34:29.827Z,72.45
2019-01-15T07:35:29.812Z,72.45
2019-01-15T07:36:29.812Z,72.45
2019-01-15T07:37:29.794Z,72.14
2019-01-15T07:38:29.811Z,72.56
2019-01-15T07:39:29.783Z,72.35
2019-01-15T07:40:29.759Z,72.35
2019-01-15T07:41:29.774Z,72.25
2019-01-15T07:42:29.768Z,72.77
2019-01-15T07:43:29.726Z,72.56
2019-01-15T07:44:29.779Z,72.66
2019-01-15T07:45:29.723Z,72.35
2019-01-15T07:46:29.692Z,72.77
2019-01-15T07:47:29.697Z,73.08
2019-01-15T07:48:29.690Z,72.77
2019-01-15T07:49:29.668Z,72.77
2019-01-15T07:50:29.679Z,72.77
2019-01-15T07:51:29.681Z,72.25
2019-01-15T07:52:29.631Z,72.87
2019-01-15T07:53:29.632Z,72.63
2019-01-15T07:54:29.641Z,72.77
2019-01-15T07:55:29.627Z,73.15
2019-01-15T07:56:29.622Z,72.32
2019-01-15T07:57:29.599Z,72.87
2019-01-15T07:58:29.583Z,72.42
2019-01-15T07:59:29.591Z,72.32
2019-01-15T08:00:29.546Z,72.53
2019-01-15T08:01:29.538Z,72.74
2019-01-15T08:02:29.561Z,72.84
2019-01-15T08:03:29.520Z,72.53
2019-01-15T08:04:29.517Z,72.63
2019-01-15T08:05:29.519Z,72.84
2019-01-15T08:06:29.481Z,73.15
2019-01-15T08:07:29.478Z,72.74
2019-01-15T08:08:29.483Z,72.84
2019-01-15T08:09:29.492Z,72.94
2019-01-15T08:10:29.498Z,73.36
2019-01-15T08:11:29.442Z,72.84
2019-01-15T08:12:29.422Z,73.77
2019-01-15T08:13:29.410Z,73.36
2019-01-15T08:14:29.421Z,73.46
2019-01-15T08:15:29.411Z,74.08
2019-01-15T08:16:29.439Z,73.57
2019-01-15T08:17:29.385Z,73.77
2019-01-15T08:18:29.357Z,74.29
2019-01-15T08:19:29.349Z,73.67
2019-01-15T08:20:29.331Z,74.19
2019-01-15T08:21:30.880Z,73.57
2019-01-15T08:22:29.316Z,73.67
2019-01-15T08:23:29.307Z,73.88
2019-01-15T08:24:29.292Z,73.67
2019-01-15T08:25:29.288Z,73.98
2019-01-15T08:26:29.267Z,73.77
2019-01-15T08:27:29.289Z,74.29
2019-01-15T08:28:29.258Z,74.91
2019-01-15T08:29:29.246Z,74.71
2019-01-15T08:30:29.241Z,74.81
2019-01-15T08:31:29.213Z,75.02
2019-01-15T08:32:29.208Z,73.74
2019-01-15T08:33:29.221Z,74.60
2019-01-15T08:34:29.216Z,74.71
2019-01-15T08:35:29.168Z,73.98
2019-01-15T08:36:29.185Z,74.50
2019-01-15T08:37:29.149Z,74.81
2019-01-15T08:38:29.155Z,74.71
2019-01-15T08:39:29.126Z,75.02
2019-01-15T08:40:29.137Z,74.91
2019-01-15T08:41:29.120Z,75.02
2019-01-15T08:42:29.102Z,74.91
2019-01-15T08:43:29.101Z,75.23
2019-01-15T08:44:29.076Z,75.54
2019-01-15T08:45:29.058Z,75.02
2019-01-15T08:46:29.063Z,75.54
2019-01-15T08:47:29.065Z,75.02
2019-01-15T08:48:29.051Z,75.54
2019-01-15T08:49:29.037Z,75.74
2019-01-15T08:50:29.031Z,74.98
2019-01-15T08:51:29.000Z,75.09
2019-01-15T08:52:28.988Z,75.54
2019-01-15T08:53:28.988Z,75.71
2019-01-15T08:54:28.964Z,75.71
2019-01-15T08:55:28.952Z,75.50
2019-01-15T08:56:28.938Z,75.85
2019-01-15T08:57:28.935Z,75.71
2019-01-15T08:58:28.949Z,75.92
2019-01-15T08:59:28.911Z,76.02
2019-01-15T09:00:28.896Z,76.06
2019-01-15T09:01:28.897Z,75.81
2019-01-15T09:02:28.864Z,76.06
2019-01-15T09:03:28.876Z,75.92
2019-01-15T09:04:28.871Z,76.02
2019-01-15T09:05:28.890Z,76.23
2019-01-15T09:06:28.838Z,76.12
2019-01-15T09:07:28.814Z,77.47
2019-01-15T09:08:28.807Z,76.95
2019-01-15T09:09:28.799Z,77.20
2019-01-15T09:10:28.812Z,76.99
2019-01-15T09:11:30.496Z,77.16
2019-01-15T09:12:28.793Z,77.47
2019-01-15T09:13:28.749Z,77.26
2019-01-15T09:14:28.743Z,77.47
2019-01-15T09:15:28.720Z,77.47
2019-01-15T09:16:28.760Z,77.51
2019-01-15T09:17:28.710Z,77.89
2019-01-15T09:18:28.898Z,77.82
2019-01-15T09:19:28.734Z,78.41
2019-01-15T09:20:28.673Z,78.75
2019-01-15T09:21:28.691Z,78.41
2019-01-15T09:22:28.654Z,79.55
2019-01-15T09:23:28.643Z,79.03
2019-01-15T09:24:28.645Z,79.34
2019-01-15T09:25:28.621Z,79.44
2019-01-15T09:26:28.631Z,79.24
2019-01-15T09:27:28.621Z,79.75
2019-01-15T09:28:28.724Z,79.03
2019-01-15T09:29:28.595Z,79.96
2019-01-15T09:30:28.582Z,79.79
2019-01-15T09:31:28.551Z,79.44
2019-01-15T09:32:28.539Z,79.58
2019-01-15T09:33:28.525Z,80.21
2019-01-15T09:34:28.534Z,80.00
2019-01-15T09:35:28.513Z,80.47
2019-01-15T09:36:28.492Z,80.31
2019-01-15T09:37:28.496Z,79.69
2019-01-15T09:38:28.471Z,79.69
2019-01-15T09:39:28.458Z,79.90
2019-01-15T09:40:28.467Z,79.69
2019-01-15T09:41:28.455Z,79.79
2019-01-15T09:42:28.428Z,80.31
2019-01-15T09:43:28.427Z,80.00
2019-01-15T09:44:34.032Z,79.48
2019-01-15T09:45:29.426Z,79.24
2019-01-15T09:46:28.388Z,79.24
2019-01-15T09:47:28.375Z,79.61
2019-01-15T09:48:28.358Z,78.89
2019-01-15T09:49:28.379Z,79.20
2019-01-15T09:50:28.341Z,78.82
2019-01-15T09:51:28.344Z,79.82
2019-01-15T09:52:28.329Z,78.37
2019-01-15T09:53:28.332Z,78.16
2019-01-15T09:54:28.299Z,78.37
2019-01-15T09:55:28.322Z,78.78
2019-01-15T09:56:28.318Z,79.30
2019-01-15T09:57:28.266Z,79.85
2019-01-15T09:58:28.264Z,79.75
2019-01-15T09:59:28.277Z,80.27
2019-01-15T10:00:28.246Z,80.58
2019-01-15T10:01:28.277Z,80.68
2019-01-15T10:02:28.238Z,80.68
2019-01-15T10:03:28.201Z,80.58
2019-01-15T10:04:28.205Z,80.23
2019-01-15T10:05:28.177Z,79.82
2019-01-15T10:06:28.171Z,80.06
2019-01-15T10:07:28.213Z,79.82
2019-01-15T10:08:28.194Z,80.44
2019-01-15T10:09:28.142Z,81.30
2019-01-15T10:10:28.153Z,81.37
2019-01-15T10:11:28.136Z,80.75
2019-01-15T10:12:28.135Z,80.44
2019-01-15T10:13:28.111Z,80.75
2019-01-15T10:14:28.129Z,80.23
2019-01-15T10:15:28.084Z,80.02
2019-01-15T10:16:28.065Z,79.68
2019-01-15T10:17:28.057Z,79.47
2019-01-15T10:18:28.077Z,79.58
2019-01-15T10:19:28.018Z,80.23
2019-01-15T10:20:28.006Z,80.65
2019-01-15T10:21:28.002Z,80.65
2019-01-15T10:22:27.990Z,80.65
2019-01-15T10:23:27.989Z,80.65
2019-01-15T10:24:28.013Z,81.06
2019-01-15T10:25:27.979Z,80.33
2019-01-15T10:26:28.015Z,80.23
2019-01-15T10:27:27.944Z,80.54
2019-01-15T10:28:27.934Z,79.82
2019-01-15T10:29:27.936Z,79.99
2019-01-15T10:30:27.947Z,80.61
2019-01-15T10:31:27.889Z,79.99
2019-01-15T10:32:27.877Z,80.09
2019-01-15T10:33:27.882Z,79.99
2019-01-15T10:34:27.859Z,79.06
2019-01-15T10:35:27.845Z,79.06
2019-01-15T10:36:27.909Z,78.96
2019-01-15T10:37:27.847Z,79.27
2019-01-15T10:38:27.825Z,79.37
2019-01-15T10:39:27.807Z,79.27
2019-01-15T10:40:27.793Z,79.16
2019-01-15T10:41:27.785Z,79.37
2019-01-15T10:42:27.809Z,79.16
2019-01-15T10:43:27.787Z,79.27
2019-01-15T10:44:27.751Z,79.06
2019-01-15T10:45:27.749Z,79.54
2019-01-15T10:46:27.731Z,78.85
2019-01-15T10:47:27.714Z,79.33
2019-01-15T10:48:27.739Z,79.58
2019-01-15T10:49:27.710Z,79.23
2019-01-15T10:50:27.691Z,78.81
2019-01-15T10:51:27.678Z,78.61
2019-01-15T10:52:27.662Z,78.40
2019-01-15T10:53:27.652Z,78.26
2019-01-15T10:54:27.714Z,77.74
2019-01-15T10:55:27.636Z,77.74
2019-01-15T10:56:27.630Z,77.22
2019-01-15T10:57:27.613Z,77.33
2019-01-15T10:58:27.603Z,77.01
2019-01-15T10:59:27.609Z,77.43
2019-01-15T11:00:27.569Z,77.26
2019-01-15T11:01:27.579Z,77.22
2019-01-15T11:02:27.574Z,77.22
2019-01-15T11:03:27.573Z,75.67
2019-01-15T11:04:27.534Z,76.05
2019-01-15T11:05:27.547Z,75.29
2019-01-15T11:06:27.504Z,75.70
2019-01-15T11:07:27.502Z,75.53
2019-01-15T11:08:27.527Z,75.95
2019-01-15T11:09:27.486Z,76.05
2019-01-15T11:10:27.493Z,75.74
2019-01-15T11:11:27.475Z,76.81
2019-01-15T11:12:27.438Z,76.78
2019-01-15T11:13:27.438Z,76.36
2019-01-15T11:14:27.438Z,75.98
2019-01-15T11:15:27.407Z,75.53
2019-01-15T11:16:27.450Z,76.05
2019-01-15T11:17:27.393Z,75.95
2019-01-15T11:18:27.372Z,75.84
2019-01-15T11:19:27.382Z,75.63
2019-01-15T11:20:27.380Z,76.40
2019-01-15T11:21:27.345Z,77.33
2019-01-15T11:22:27.350Z,76.09
2019-01-15T11:23:27.332Z,77.33
2019-01-15T11:24:27.341Z,77.01
2019-01-15T11:25:27.304Z,77.43
2019-01-15T11:26:27.297Z,77.53
2019-01-15T11:27:27.317Z,76.78
2019-01-15T11:28:27.277Z,76.15
2019-01-15T11:29:27.256Z,76.50
2019-01-15T11:30:27.261Z,75.88
2019-01-15T11:31:27.250Z,77.43
2019-01-15T11:32:27.254Z,76.46
2019-01-15T11:33:27.234Z,77.39
2019-01-15T11:34:27.207Z,77.09
2019-01-15T11:35:27.200Z,76.88
2019-01-15T11:36:27.213Z,77.12
2019-01-15T11:37:27.198Z,76.98
2019-01-15T11:38:27.171Z,77.12
2019-01-15T11:39:27.173Z,76.81
2019-01-15T11:40:27.132Z,77.12
2019-01-15T11:41:27.182Z,77.53
2019-01-15T11:42:27.131Z,78.05
2019-01-15T11:43:27.117Z,77.84
2019-01-15T11:44:27.095Z,78.47
2019-01-15T11:45:27.091Z,78.71
2019-01-15T11:46:27.072Z,79.74
2019-01-15T11:47:27.118Z,79.74
2019-01-15T11:48:27.064Z,80.36
2019-01-15T11:49:27.035Z,79.95
2019-01-15T11:50:27.059Z,79.64
2019-01-15T11:51:27.026Z,80.57
2019-01-15T11:52:41.848Z,80.57
2019-01-15T11:53:27.029Z,81.40
2019-01-15T11:54:26.988Z,81.02
2019-01-15T11:55:26.974Z,81.40
2019-01-15T11:56:26.962Z,81.61
2019-01-15T11:57:26.948Z,81.71
2019-01-15T11:58:26.963Z,81.85
2019-01-15T11:59:26.964Z,82.13
2019-01-15T12:00:26.944Z,82.48
2019-01-15T12:01:26.907Z,82.54
2019-01-15T12:02:26.916Z,82.95
2019-01-15T12:03:26.893Z,83.00
2019-01-15T12:04:26.889Z,82.95
2019-01-15T12:05:26.891Z,82.86
2019-01-15T12:06:26.862Z,82.86
2019-01-15T12:07:26.868Z,82.95
2019-01-15T12:08:26.831Z,83.06
2019-01-15T12:09:26.825Z,82.86
2019-01-15T12:10:26.840Z,82.81
2019-01-15T12:11:26.829Z,82.81
2019-01-15T12:12:26.801Z,82.71
2019-01-15T12:13:26.807Z,83.23
2019-01-15T12:14:26.771Z,82.92
2019-01-15T12:15:26.770Z,82.40
2019-01-15T12:16:26.750Z,82.29
2019-01-15T12:17:26.768Z,82.40
2019-01-15T12:18:26.721Z,82.40
2019-01-15T12:19:26.751Z,82.29
2019-01-15T12:20:26.707Z,82.50
2019-01-15T12:21:26.711Z,82.46
2019-01-15T12:22:27.347Z,82.60
2019-01-15T12:23:26.683Z,82.36
2019-01-15T12:24:26.686Z,82.60
2019-01-15T12:25:26.668Z,82.26
2019-01-15T12:26:26.640Z,81.95
2019-01-15T12:27:26.640Z,82.26
2019-01-15T12:28:26.624Z,82.26
2019-01-15T12:29:26.627Z,82.26
2019-01-15T12:30:26.601Z,82.26
2019-01-15T12:31:26.652Z,82.36
2019-01-15T12:32:26.586Z,82.26
2019-01-15T12:33:26.577Z,81.84
2019-01-15T12:34:26.612Z,82.15
2019-01-15T12:35:26.564Z,82.05
2019-01-15T12:36:26.534Z,81.95
2019-01-15T12:37:26.521Z,81.95
2019-01-15T12:38:26.519Z,82.26
2019-01-15T12:39:26.497Z,82.46
2019-01-15T12:40:26.516Z,82.36
2019-01-15T12:41:26.473Z,82.46
2019-01-15T12:42:26.489Z,82.67
2019-01-15T12:43:26.458Z,82.88
2019-01-15T12:44:26.446Z,83.19
2019-01-15T12:45:27.407Z,83.40
2019-01-15T12:46:26.424Z,83.40
2019-01-15T12:47:26.410Z,83.19
2019-01-15T12:48:26.437Z,83.61
2019-01-15T12:49:26.393Z,83.40
2019-01-15T12:50:26.389Z,84.12
2019-01-15T12:51:26.370Z,84.22
2019-01-15T12:52:26.374Z,84.22
2019-01-15T12:53:26.352Z,83.81